sensor_id;sensor_type;location;lat;lon;timestamp;pressure;altitude;pressure_sealevel;temperature;humidity
4814;BME280;15375;48.540;9.268;2024-01-16T00:00:49;96715.88;;;-1.37;91.10
4814;BME280;15375;48.540;9.268;2024-01-16T00:03:15;96718.28;;;-1.28;89.69
4814;BME280;15375;48.540;9.268;2024-01-16T00:05:40;96734.22;;;-1.16;90.32
4814;BME280;15375;48.540;9.268;2024-01-16T00:08:05;96721.75;;;-1.27;89.53
4814;BME280;15375;48.540;9.268;2024-01-16T00:10:31;96754.16;;;-1.10;89.13
4814;BME280;15375;48.540;9.268;2024-01-16T00:12:56;96727.81;;;-1.31;89.66
4814;BME280;15375;48.540;9.268;2024-01-16T00:15:21;96723.94;;;-1.33;91.00
4814;BME280;15375;48.540;9.268;2024-01-16T00:17:47;96706.53;;;-1.46;90.07
4814;BME280;15375;48.540;9.268;2024-01-16T00:20:13;96720.84;;;-1.35;89.87
4814;BME280;15375;48.540;9.268;2024-01-16T00:22:38;96741.31;;;-1.23;89.27
4814;BME280;15375;48.540;9.268;2024-01-16T00:25:04;96747.69;;;-1.09;90.63
4814;BME280;15375;48.540;9.268;2024-01-16T00:27:30;96759.81;;;-1.15;90.50
4814;BME280;15375;48.540;9.268;2024-01-16T00:29:55;96757.22;;;-1.11;91.43
4814;BME280;15375;48.540;9.268;2024-01-16T00:32:23;96717.84;;;-1.34;90.29
4814;BME280;15375;48.540;9.268;2024-01-16T00:34:49;96771.09;;;-1.06;91.17
4814;BME280;15375;48.540;9.268;2024-01-16T00:37:14;96730.13;;;-1.29;91.26
4814;BME280;15375;48.540;9.268;2024-01-16T00:39:40;96755.72;;;-1.09;91.91
4814;BME280;15375;48.540;9.268;2024-01-16T00:42:05;96733.34;;;-1.20;92.33
4814;BME280;15375;48.540;9.268;2024-01-16T00:44:31;96754.13;;;-1.13;91.12
4814;BME280;15375;48.540;9.268;2024-01-16T00:46:56;96745.03;;;-1.28;91.63
4814;BME280;15375;48.540;9.268;2024-01-16T00:49:22;96720.56;;;-1.30;91.03
4814;BME280;15375;48.540;9.268;2024-01-16T00:51:47;96741.25;;;-1.27;91.62
4814;BME280;15375;48.540;9.268;2024-01-16T00:54:12;96730.84;;;-1.32;90.46
4814;BME280;15375;48.540;9.268;2024-01-16T00:56:38;96747.50;;;-1.19;90.79
4814;BME280;15375;48.540;9.268;2024-01-16T00:59:03;96714.59;;;-1.43;89.38
4814;BME280;15375;48.540;9.268;2024-01-16T01:01:29;96749.81;;;-1.18;90.07
4814;BME280;15375;48.540;9.268;2024-01-16T01:03:54;96734.78;;;-1.26;90.53
4814;BME280;15375;48.540;9.268;2024-01-16T01:06:20;96756.31;;;-1.19;91.27
4814;BME280;15375;48.540;9.268;2024-01-16T01:08:46;96741.91;;;-1.34;90.69
4814;BME280;15375;48.540;9.268;2024-01-16T01:11:11;96773.59;;;-1.13;93.45
4814;BME280;15375;48.540;9.268;2024-01-16T01:13:37;96774.47;;;-1.09;92.69
4814;BME280;15375;48.540;9.268;2024-01-16T01:16:03;96762.78;;;-1.20;91.65
4814;BME280;15375;48.540;9.268;2024-01-16T01:18:28;96736.59;;;-1.30;91.07
4814;BME280;15375;48.540;9.268;2024-01-16T01:20:53;96737.38;;;-1.30;90.51
4814;BME280;15375;48.540;9.268;2024-01-16T01:23:19;96768.41;;;-1.06;91.08
4814;BME280;15375;48.540;9.268;2024-01-16T01:25:44;96741.19;;;-1.31;90.13
4814;BME280;15375;48.540;9.268;2024-01-16T01:28:10;96742.25;;;-1.35;90.15
4814;BME280;15375;48.540;9.268;2024-01-16T01:30:36;96752.38;;;-1.25;90.06
4814;BME280;15375;48.540;9.268;2024-01-16T01:33:01;96750.41;;;-1.28;90.79
4814;BME280;15375;48.540;9.268;2024-01-16T01:35:30;96647.69;;;-2.07;89.93
4814;BME280;15375;48.540;9.268;2024-01-16T01:38:10;96770.53;;;-1.15;89.98
4814;BME280;15375;48.540;9.268;2024-01-16T01:40:35;96763.72;;;-1.32;89.14
4814;BME280;15375;48.540;9.268;2024-01-16T01:46:18;96793.06;;;-1.16;89.79
4814;BME280;15375;48.540;9.268;2024-01-16T01:48:46;96767.88;;;-1.34;89.63
4814;BME280;15375;48.540;9.268;2024-01-16T01:51:14;96739.72;;;-1.47;90.22
4814;BME280;15375;48.540;9.268;2024-01-16T01:53:42;96764.50;;;-1.31;89.92
4814;BME280;15375;48.540;9.268;2024-01-16T01:56:15;96697.97;;;-1.74;89.47
4814;BME280;15375;48.540;9.268;2024-01-16T01:58:54;96797.69;;;-1.13;89.19
4814;BME280;15375;48.540;9.268;2024-01-16T02:01:21;96788.00;;;-1.21;89.26
4814;BME280;15375;48.540;9.268;2024-01-16T02:03:49;96767.50;;;-1.33;88.01
4814;BME280;15375;48.540;9.268;2024-01-16T02:06:14;96808.38;;;-1.13;88.32
4814;BME280;15375;48.540;9.268;2024-01-16T02:08:41;96772.09;;;-1.33;89.05
4814;BME280;15375;48.540;9.268;2024-01-16T02:11:07;96782.88;;;-1.30;88.24
4814;BME280;15375;48.540;9.268;2024-01-16T02:13:32;96764.63;;;-1.43;88.49
4814;BME280;15375;48.540;9.268;2024-01-16T02:15:58;96763.03;;;-1.48;88.33
4814;BME280;15375;48.540;9.268;2024-01-16T02:18:24;96804.88;;;-1.17;88.07
4814;BME280;15375;48.540;9.268;2024-01-16T02:20:49;96776.59;;;-1.37;88.51
4814;BME280;15375;48.540;9.268;2024-01-16T02:23:15;96796.03;;;-1.21;87.75
4814;BME280;15375;48.540;9.268;2024-01-16T02:25:44;96788.06;;;-1.17;88.36
4814;BME280;15375;48.540;9.268;2024-01-16T02:28:09;96795.78;;;-1.12;87.98
4814;BME280;15375;48.540;9.268;2024-01-16T02:30:35;96807.28;;;-1.12;88.68
4814;BME280;15375;48.540;9.268;2024-01-16T02:33:03;96713.59;;;-1.76;89.02
4814;BME280;15375;48.540;9.268;2024-01-16T02:35:28;96771.25;;;-1.37;89.46
4814;BME280;15375;48.540;9.268;2024-01-16T02:37:54;96746.56;;;-1.50;88.68
4814;BME280;15375;48.540;9.268;2024-01-16T02:40:19;96781.38;;;-1.27;88.68
4814;BME280;15375;48.540;9.268;2024-01-16T02:42:45;96793.34;;;-1.21;89.06
4814;BME280;15375;48.540;9.268;2024-01-16T02:45:10;96702.72;;;-1.83;88.72
4814;BME280;15375;48.540;9.268;2024-01-16T02:47:36;96760.47;;;-1.41;87.57
4814;BME280;15375;48.540;9.268;2024-01-16T02:50:01;96772.88;;;-1.33;88.00
4814;BME280;15375;48.540;9.268;2024-01-16T02:52:27;96759.00;;;-1.38;87.08
4814;BME280;15375;48.540;9.268;2024-01-16T02:54:53;96786.81;;;-1.23;87.56
4814;BME280;15375;48.540;9.268;2024-01-16T02:57:18;96743.81;;;-1.53;88.57
4814;BME280;15375;48.540;9.268;2024-01-16T02:59:44;96757.34;;;-1.46;88.11
4814;BME280;15375;48.540;9.268;2024-01-16T03:02:09;96775.50;;;-1.36;88.59
4814;BME280;15375;48.540;9.268;2024-01-16T03:04:35;96746.00;;;-1.59;87.67
4814;BME280;15375;48.540;9.268;2024-01-16T03:07:00;96774.63;;;-1.40;88.72
4814;BME280;15375;48.540;9.268;2024-01-16T03:09:25;96763.72;;;-1.51;88.21
4814;BME280;15375;48.540;9.268;2024-01-16T03:11:51;96711.94;;;-1.81;87.84
4814;BME280;15375;48.540;9.268;2024-01-16T03:14:17;96777.44;;;-1.52;88.27
4814;BME280;15375;48.540;9.268;2024-01-16T03:16:43;96715.53;;;-1.92;88.21
4814;BME280;15375;48.540;9.268;2024-01-16T03:19:09;96762.75;;;-1.62;89.13
4814;BME280;15375;48.540;9.268;2024-01-16T03:21:35;96761.56;;;-1.64;88.21
4814;BME280;15375;48.540;9.268;2024-01-16T03:24:00;96770.00;;;-1.62;87.56
4814;BME280;15375;48.540;9.268;2024-01-16T03:26:25;96766.53;;;-1.63;88.28
4814;BME280;15375;48.540;9.268;2024-01-16T03:28:51;96785.97;;;-1.47;88.66
4814;BME280;15375;48.540;9.268;2024-01-16T03:31:16;96790.28;;;-1.61;88.30
4814;BME280;15375;48.540;9.268;2024-01-16T03:33:42;96793.97;;;-1.66;89.15
4814;BME280;15375;48.540;9.268;2024-01-16T03:36:09;96756.00;;;-1.94;89.75
4814;BME280;15375;48.540;9.268;2024-01-16T03:38:35;96771.47;;;-1.84;89.74
4814;BME280;15375;48.540;9.268;2024-01-16T03:41:02;96767.97;;;-2.04;88.04
4814;BME280;15375;48.540;9.268;2024-01-16T03:43:29;96777.47;;;-2.06;87.87
4814;BME280;15375;48.540;9.268;2024-01-16T03:45:57;96704.03;;;-2.66;88.55
4814;BME280;15375;48.540;9.268;2024-01-16T03:48:22;96770.19;;;-2.25;88.09
4814;BME280;15375;48.540;9.268;2024-01-16T03:50:48;96734.84;;;-2.53;88.82
4814;BME280;15375;48.540;9.268;2024-01-16T03:53:13;96779.59;;;-2.31;88.95
4814;BME280;15375;48.540;9.268;2024-01-16T03:55:39;96693.72;;;-2.99;89.10
4814;BME280;15375;48.540;9.268;2024-01-16T03:58:04;96733.06;;;-2.80;89.88
4814;BME280;15375;48.540;9.268;2024-01-16T04:00:29;96780.22;;;-2.53;90.16
4814;BME280;15375;48.540;9.268;2024-01-16T04:02:55;96756.03;;;-2.76;90.93
4814;BME280;15375;48.540;9.268;2024-01-16T04:05:20;96753.38;;;-2.76;91.90
4814;BME280;15375;48.540;9.268;2024-01-16T04:07:48;96727.88;;;-3.04;91.94
4814;BME280;15375;48.540;9.268;2024-01-16T04:10:14;96757.22;;;-2.89;92.58
4814;BME280;15375;48.540;9.268;2024-01-16T04:12:39;96779.28;;;-2.76;92.94
4814;BME280;15375;48.540;9.268;2024-01-16T04:15:05;96796.16;;;-2.72;92.52
4814;BME280;15375;48.540;9.268;2024-01-16T04:17:31;96775.84;;;-2.92;93.40
4814;BME280;15375;48.540;9.268;2024-01-16T04:19:56;96778.50;;;-2.92;93.45
4814;BME280;15375;48.540;9.268;2024-01-16T04:22:21;96729.69;;;-3.24;93.79
4814;BME280;15375;48.540;9.268;2024-01-16T04:24:47;96779.00;;;-3.02;94.01
4814;BME280;15375;48.540;9.268;2024-01-16T04:27:12;96774.59;;;-3.10;94.52
4814;BME280;15375;48.540;9.268;2024-01-16T04:29:38;96786.50;;;-3.08;95.09
4814;BME280;15375;48.540;9.268;2024-01-16T04:32:03;96706.81;;;-3.68;95.12
4814;BME280;15375;48.540;9.268;2024-01-16T04:34:29;96803.34;;;-3.04;95.43
4814;BME280;15375;48.540;9.268;2024-01-16T04:36:55;96775.19;;;-3.17;95.50
4814;BME280;15375;48.540;9.268;2024-01-16T04:39:20;96801.81;;;-3.05;95.62
4814;BME280;15375;48.540;9.268;2024-01-16T04:41:48;96798.44;;;-3.17;95.22
4814;BME280;15375;48.540;9.268;2024-01-16T04:44:15;96729.66;;;-3.67;95.24
4814;BME280;15375;48.540;9.268;2024-01-16T04:46:40;96809.28;;;-3.10;94.99
4814;BME280;15375;48.540;9.268;2024-01-16T04:49:06;96702.53;;;-3.85;94.11
4814;BME280;15375;48.540;9.268;2024-01-16T04:51:31;96773.31;;;-3.44;93.81
4814;BME280;15375;48.540;9.268;2024-01-16T04:53:56;96728.63;;;-3.78;93.98
4814;BME280;15375;48.540;9.268;2024-01-16T04:56:22;96795.91;;;-3.26;95.57
4814;BME280;15375;48.540;9.268;2024-01-16T04:58:47;96723.63;;;-3.80;95.77
4814;BME280;15375;48.540;9.268;2024-01-16T05:01:13;96792.72;;;-3.32;95.71
4814;BME280;15375;48.540;9.268;2024-01-16T05:03:38;96784.09;;;-3.41;96.13
4814;BME280;15375;48.540;9.268;2024-01-16T05:06:04;96781.84;;;-3.39;96.21
4814;BME280;15375;48.540;9.268;2024-01-16T05:08:29;96756.78;;;-3.65;97.17
4814;BME280;15375;48.540;9.268;2024-01-16T05:10:56;96758.84;;;-3.59;97.71
4814;BME280;15375;48.540;9.268;2024-01-16T05:13:21;96798.22;;;-3.52;96.84
4814;BME280;15375;48.540;9.268;2024-01-16T05:15:47;96743.09;;;-3.92;96.47
4814;BME280;15375;48.540;9.268;2024-01-16T05:18:12;96779.44;;;-3.71;98.17
4814;BME280;15375;48.540;9.268;2024-01-16T05:20:38;96786.41;;;-3.67;98.50
4814;BME280;15375;48.540;9.268;2024-01-16T05:23:03;96769.06;;;-3.89;99.16
4814;BME280;15375;48.540;9.268;2024-01-16T05:25:28;96735.69;;;-4.10;100.00
4814;BME280;15375;48.540;9.268;2024-01-16T05:27:55;96764.84;;;-3.90;100.00
4814;BME280;15375;48.540;9.268;2024-01-16T05:30:20;96751.22;;;-4.00;100.00
4814;BME280;15375;48.540;9.268;2024-01-16T05:32:46;96752.09;;;-3.96;100.00
4814;BME280;15375;48.540;9.268;2024-01-16T05:35:11;96748.31;;;-3.95;100.00
4814;BME280;15375;48.540;9.268;2024-01-16T05:37:36;96728.16;;;-4.08;100.00
4814;BME280;15375;48.540;9.268;2024-01-16T05:40:02;96734.00;;;-4.03;100.00
4814;BME280;15375;48.540;9.268;2024-01-16T05:42:29;96745.78;;;-4.04;100.00
4814;BME280;15375;48.540;9.268;2024-01-16T05:44:54;96772.75;;;-3.93;100.00
4814;BME280;15375;48.540;9.268;2024-01-16T05:47:19;96735.41;;;-4.21;100.00
4814;BME280;15375;48.540;9.268;2024-01-16T05:49:45;96742.59;;;-4.09;100.00
4814;BME280;15375;48.540;9.268;2024-01-16T05:52:10;96702.16;;;-4.39;100.00
4814;BME280;15375;48.540;9.268;2024-01-16T05:54:35;96707.28;;;-4.46;100.00
4814;BME280;15375;48.540;9.268;2024-01-16T05:57:01;96726.97;;;-4.23;100.00
4814;BME280;15375;48.540;9.268;2024-01-16T05:59:27;96735.09;;;-4.31;100.00
4814;BME280;15375;48.540;9.268;2024-01-16T06:01:53;96739.31;;;-4.42;100.00
4814;BME280;15375;48.540;9.268;2024-01-16T06:04:18;96718.72;;;-4.58;100.00
4814;BME280;15375;48.540;9.268;2024-01-16T06:06:44;96756.28;;;-4.35;100.00
4814;BME280;15375;48.540;9.268;2024-01-16T06:09:11;96746.19;;;-4.41;100.00
4814;BME280;15375;48.540;9.268;2024-01-16T06:11:39;96753.50;;;-4.26;100.00
4814;BME280;15375;48.540;9.268;2024-01-16T06:14:06;96722.03;;;-4.36;100.00
4814;BME280;15375;48.540;9.268;2024-01-16T06:16:32;96673.28;;;-4.77;100.00
4814;BME280;15375;48.540;9.268;2024-01-16T06:18:57;96722.81;;;-4.36;100.00
4814;BME280;15375;48.540;9.268;2024-01-16T06:21:23;96770.44;;;-4.07;100.00
4814;BME280;15375;48.540;9.268;2024-01-16T06:23:48;96740.41;;;-4.31;100.00
4814;BME280;15375;48.540;9.268;2024-01-16T06:26:13;96675.28;;;-4.74;100.00
4814;BME280;15375;48.540;9.268;2024-01-16T06:28:39;96731.75;;;-4.40;100.00
4814;BME280;15375;48.540;9.268;2024-01-16T06:31:07;96770.03;;;-4.21;100.00
4814;BME280;15375;48.540;9.268;2024-01-16T06:33:32;96769.75;;;-4.04;100.00
4814;BME280;15375;48.540;9.268;2024-01-16T06:35:58;96691.25;;;-4.74;100.00
4814;BME280;15375;48.540;9.268;2024-01-16T06:38:24;96687.47;;;-4.73;100.00
4814;BME280;15375;48.540;9.268;2024-01-16T06:40:49;96770.03;;;-4.21;100.00
4814;BME280;15375;48.540;9.268;2024-01-16T06:43:15;96761.28;;;-4.33;100.00
4814;BME280;15375;48.540;9.268;2024-01-16T06:45:42;96679.16;;;-4.83;100.00
4814;BME280;15375;48.540;9.268;2024-01-16T06:48:07;96726.47;;;-4.65;100.00
4814;BME280;15375;48.540;9.268;2024-01-16T06:50:33;96771.25;;;-4.42;100.00
4814;BME280;15375;48.540;9.268;2024-01-16T06:52:58;96709.41;;;-4.88;100.00
4814;BME280;15375;48.540;9.268;2024-01-16T06:55:23;96788.22;;;-4.35;100.00
4814;BME280;15375;48.540;9.268;2024-01-16T06:57:49;96765.38;;;-4.36;100.00
4814;BME280;15375;48.540;9.268;2024-01-16T07:00:15;96764.81;;;-4.29;100.00
4814;BME280;15375;48.540;9.268;2024-01-16T07:02:40;96769.00;;;-4.16;100.00
4814;BME280;15375;48.540;9.268;2024-01-16T07:05:09;96750.16;;;-4.23;100.00
4814;BME280;15375;48.540;9.268;2024-01-16T07:07:34;96750.81;;;-4.14;100.00
4814;BME280;15375;48.540;9.268;2024-01-16T07:09:59;96778.31;;;-3.98;100.00
4814;BME280;15375;48.540;9.268;2024-01-16T07:12:25;96768.66;;;-4.15;100.00
4814;BME280;15375;48.540;9.268;2024-01-16T07:14:50;96744.28;;;-4.29;100.00
4814;BME280;15375;48.540;9.268;2024-01-16T07:17:16;96751.06;;;-4.31;100.00
4814;BME280;15375;48.540;9.268;2024-01-16T07:19:41;96763.25;;;-4.18;100.00
4814;BME280;15375;48.540;9.268;2024-01-16T07:22:06;96740.97;;;-4.38;100.00
4814;BME280;15375;48.540;9.268;2024-01-16T07:24:32;96753.19;;;-4.37;100.00
4814;BME280;15375;48.540;9.268;2024-01-16T07:26:57;96698.31;;;-4.66;100.00
4814;BME280;15375;48.540;9.268;2024-01-16T07:29:23;96777.75;;;-4.04;100.00
4814;BME280;15375;48.540;9.268;2024-01-16T07:31:48;96750.91;;;-4.11;100.00
4814;BME280;15375;48.540;9.268;2024-01-16T07:34:14;96737.41;;;-4.30;100.00
4814;BME280;15375;48.540;9.268;2024-01-16T07:36:45;96706.50;;;-4.46;100.00
4814;BME280;15375;48.540;9.268;2024-01-16T07:39:10;96757.16;;;-4.19;100.00
4814;BME280;15375;48.540;9.268;2024-01-16T07:41:36;96792.09;;;-4.08;100.00
4814;BME280;15375;48.540;9.268;2024-01-16T07:44:01;96676.97;;;-4.81;100.00
4814;BME280;15375;48.540;9.268;2024-01-16T07:46:26;96686.59;;;-4.77;100.00
4814;BME280;15375;48.540;9.268;2024-01-16T07:48:52;96739.75;;;-4.40;100.00
4814;BME280;15375;48.540;9.268;2024-01-16T07:51:17;96744.19;;;-4.32;100.00
4814;BME280;15375;48.540;9.268;2024-01-16T07:53:42;96686.91;;;-4.54;100.00
4814;BME280;15375;48.540;9.268;2024-01-16T07:56:08;96758.34;;;-4.04;100.00
4814;BME280;15375;48.540;9.268;2024-01-16T07:58:34;96794.44;;;-3.79;100.00
4814;BME280;15375;48.540;9.268;2024-01-16T08:00:59;96757.44;;;-3.96;100.00
4814;BME280;15375;48.540;9.268;2024-01-16T08:03:25;96704.69;;;-4.30;100.00
4814;BME280;15375;48.540;9.268;2024-01-16T08:05:50;96751.72;;;-3.82;100.00
4814;BME280;15375;48.540;9.268;2024-01-16T08:08:16;96691.38;;;-4.18;100.00
4814;BME280;15375;48.540;9.268;2024-01-16T08:10:41;96757.34;;;-3.72;100.00
4814;BME280;15375;48.540;9.268;2024-01-16T08:13:07;96723.19;;;-3.82;100.00
4814;BME280;15375;48.540;9.268;2024-01-16T08:15:33;96740.09;;;-3.62;100.00
4814;BME280;15375;48.540;9.268;2024-01-16T08:18:00;96674.44;;;-3.98;99.46
4814;BME280;15375;48.540;9.268;2024-01-16T08:20:25;96680.91;;;-3.83;100.00
4814;BME280;15375;48.540;9.268;2024-01-16T08:22:51;96700.81;;;-3.50;99.28
4814;BME280;15375;48.540;9.268;2024-01-16T08:25:16;96724.84;;;-3.34;98.42
4814;BME280;15375;48.540;9.268;2024-01-16T08:27:41;96740.63;;;-3.13;97.91
4814;BME280;15375;48.540;9.268;2024-01-16T08:30:09;96725.13;;;-3.24;96.47
4814;BME280;15375;48.540;9.268;2024-01-16T08:32:35;96759.72;;;-2.96;96.94
4814;BME280;15375;48.540;9.268;2024-01-16T08:35:00;96747.00;;;-3.02;95.85
4814;BME280;15375;48.540;9.268;2024-01-16T08:37:26;96719.97;;;-3.16;95.51
4814;BME280;15375;48.540;9.268;2024-01-16T08:39:51;96776.59;;;-2.76;95.33
4814;BME280;15375;48.540;9.268;2024-01-16T08:42:17;96771.09;;;-2.68;94.38
4814;BME280;15375;48.540;9.268;2024-01-16T08:44:43;96767.66;;;-2.52;94.86
4814;BME280;15375;48.540;9.268;2024-01-16T08:47:08;96726.84;;;-2.84;92.86
4814;BME280;15375;48.540;9.268;2024-01-16T08:49:34;96770.56;;;-2.42;93.53
4814;BME280;15375;48.540;9.268;2024-01-16T08:52:00;96736.22;;;-2.59;91.06
4814;BME280;15375;48.540;9.268;2024-01-16T08:54:27;96745.41;;;-2.57;90.29
4814;BME280;15375;48.540;9.268;2024-01-16T08:56:53;96762.28;;;-2.37;90.43
4814;BME280;15375;48.540;9.268;2024-01-16T08:59:18;96767.94;;;-2.23;91.14
4814;BME280;15375;48.540;9.268;2024-01-16T09:01:44;96757.56;;;-2.09;89.11
4814;BME280;15375;48.540;9.268;2024-01-16T09:04:09;96761.09;;;-2.05;87.98
4814;BME280;15375;48.540;9.268;2024-01-16T09:06:35;96742.53;;;-1.98;87.58
4814;BME280;15375;48.540;9.268;2024-01-16T09:09:00;96759.84;;;-1.53;86.08
4814;BME280;15375;48.540;9.268;2024-01-16T09:11:25;96746.13;;;-1.33;84.39
4814;BME280;15375;48.540;9.268;2024-01-16T09:13:51;96704.63;;;-1.23;82.52
4814;BME280;15375;48.540;9.268;2024-01-16T09:16:17;96708.19;;;-0.70;79.31
4814;BME280;15375;48.540;9.268;2024-01-16T09:18:42;96727.69;;;-0.21;77.32
4814;BME280;15375;48.540;9.268;2024-01-16T09:21:08;96682.41;;;-0.55;73.66
4814;BME280;15375;48.540;9.268;2024-01-16T09:23:33;96706.56;;;-0.52;74.06
4814;BME280;15375;48.540;9.268;2024-01-16T09:25:58;96705.47;;;-0.74;74.27
4814;BME280;15375;48.540;9.268;2024-01-16T09:28:24;96683.06;;;-0.62;74.19
4814;BME280;15375;48.540;9.268;2024-01-16T09:30:49;96708.22;;;-0.14;74.97
4814;BME280;15375;48.540;9.268;2024-01-16T09:33:15;96738.25;;;0.28;72.46
4814;BME280;15375;48.540;9.268;2024-01-16T09:35:42;96734.91;;;0.35;71.02
4814;BME280;15375;48.540;9.268;2024-01-16T09:38:07;96663.72;;;-0.22;71.83
4814;BME280;15375;48.540;9.268;2024-01-16T09:40:33;96698.66;;;-0.15;71.93
4814;BME280;15375;48.540;9.268;2024-01-16T09:43:00;96684.50;;;-0.12;73.24
4814;BME280;15375;48.540;9.268;2024-01-16T09:45:26;96742.44;;;-0.04;72.32
4814;BME280;15375;48.540;9.268;2024-01-16T09:47:53;96701.66;;;0.10;72.97
4814;BME280;15375;48.540;9.268;2024-01-16T09:50:19;96726.75;;;0.57;70.43
4814;BME280;15375;48.540;9.268;2024-01-16T09:52:48;96680.19;;;0.43;69.49
4814;BME280;15375;48.540;9.268;2024-01-16T09:55:17;96714.19;;;1.05;69.87
4814;BME280;15375;48.540;9.268;2024-01-16T09:57:45;96702.00;;;1.18;66.71
4814;BME280;15375;48.540;9.268;2024-01-16T10:00:12;96698.94;;;1.16;67.98
4814;BME280;15375;48.540;9.268;2024-01-16T10:02:41;96723.41;;;1.55;64.80
4814;BME280;15375;48.540;9.268;2024-01-16T10:05:10;96720.78;;;1.15;67.40
4814;BME280;15375;48.540;9.268;2024-01-16T10:07:41;96698.09;;;1.09;68.04
4814;BME280;15375;48.540;9.268;2024-01-16T10:10:09;96681.44;;;0.89;67.61
4814;BME280;15375;48.540;9.268;2024-01-16T10:12:39;96662.84;;;0.70;66.24
4814;BME280;15375;48.540;9.268;2024-01-16T10:15:06;96672.78;;;0.29;66.85
4814;BME280;15375;48.540;9.268;2024-01-16T10:17:41;96710.97;;;0.19;68.76
4814;BME280;15375;48.540;9.268;2024-01-16T10:20:08;96715.63;;;-0.08;68.19
4814;BME280;15375;48.540;9.268;2024-01-16T10:22:38;96712.09;;;-0.12;70.05
4814;BME280;15375;48.540;9.268;2024-01-16T10:27:35;96682.56;;;0.15;72.82
4814;BME280;15375;48.540;9.268;2024-01-16T10:30:01;96674.16;;;0.93;68.38
4814;BME280;15375;48.540;9.268;2024-01-16T10:32:29;96683.63;;;1.78;67.45
4814;BME280;15375;48.540;9.268;2024-01-16T10:35:21;96679.78;;;2.80;64.60
4814;BME280;15375;48.540;9.268;2024-01-16T10:37:48;96666.34;;;3.33;60.30
4814;BME280;15375;48.540;9.268;2024-01-16T10:40:24;96623.16;;;3.61;55.99
4814;BME280;15375;48.540;9.268;2024-01-16T10:43:04;96658.19;;;3.78;55.90
4814;BME280;15375;48.540;9.268;2024-01-16T10:45:30;96635.38;;;4.08;55.38
4814;BME280;15375;48.540;9.268;2024-01-16T10:50:32;96611.28;;;3.41;55.49
4814;BME280;15375;48.540;9.268;2024-01-16T10:53:08;96631.28;;;3.57;57.38
4814;BME280;15375;48.540;9.268;2024-01-16T10:55:52;96670.19;;;3.17;57.91
4814;BME280;15375;48.540;9.268;2024-01-16T10:58:22;96628.97;;;2.61;59.08
4814;BME280;15375;48.540;9.268;2024-01-16T11:00:51;96656.75;;;3.07;59.03
4814;BME280;15375;48.540;9.268;2024-01-16T11:03:41;96659.44;;;3.14;59.44
4814;BME280;15375;48.540;9.268;2024-01-16T11:06:09;96611.63;;;3.57;59.72
4814;BME280;15375;48.540;9.268;2024-01-16T11:08:36;96649.78;;;4.56;56.47
4814;BME280;15375;48.540;9.268;2024-01-16T11:11:02;96619.56;;;4.10;55.25
4814;BME280;15375;48.540;9.268;2024-01-16T11:13:31;96644.31;;;3.73;57.85
4814;BME280;15375;48.540;9.268;2024-01-16T11:15:59;96636.72;;;3.29;58.70
4814;BME280;15375;48.540;9.268;2024-01-16T11:18:27;96648.16;;;3.86;58.13
4814;BME280;15375;48.540;9.268;2024-01-16T11:20:54;96623.94;;;3.72;57.35
4814;BME280;15375;48.540;9.268;2024-01-16T11:23:20;96620.34;;;4.03;56.69
4814;BME280;15375;48.540;9.268;2024-01-16T11:25:46;96594.66;;;4.50;56.52
4814;BME280;15375;48.540;9.268;2024-01-16T11:28:13;96590.38;;;4.60;54.44
4814;BME280;15375;48.540;9.268;2024-01-16T11:30:39;96633.50;;;4.70;55.02
4814;BME280;15375;48.540;9.268;2024-01-16T11:33:05;96595.13;;;4.38;55.31
4814;BME280;15375;48.540;9.268;2024-01-16T11:35:47;96604.56;;;4.05;55.54
4814;BME280;15375;48.540;9.268;2024-01-16T11:38:17;96614.13;;;4.20;56.46
4814;BME280;15375;48.540;9.268;2024-01-16T11:40:44;96613.66;;;4.32;55.59
4814;BME280;15375;48.540;9.268;2024-01-16T11:45:56;96567.28;;;3.72;55.55
4814;BME280;15375;48.540;9.268;2024-01-16T11:48:24;96609.47;;;4.28;56.00
4814;BME280;15375;48.540;9.268;2024-01-16T11:50:50;96567.72;;;4.39;55.21
4814;BME280;15375;48.540;9.268;2024-01-16T11:53:35;96586.13;;;4.59;55.59
4814;BME280;15375;48.540;9.268;2024-01-16T11:56:26;96564.25;;;4.42;54.01
4814;BME280;15375;48.540;9.268;2024-01-16T12:02:09;96545.88;;;4.75;53.50
4814;BME280;15375;48.540;9.268;2024-01-16T12:04:35;96548.50;;;4.85;54.21
4814;BME280;15375;48.540;9.268;2024-01-16T12:07:01;96499.50;;;4.83;53.54
4814;BME280;15375;48.540;9.268;2024-01-16T12:09:28;96537.06;;;5.49;52.31
4814;BME280;15375;48.540;9.268;2024-01-16T12:12:00;96509.38;;;5.00;51.42
4814;BME280;15375;48.540;9.268;2024-01-16T12:14:27;96492.84;;;4.95;50.91
4814;BME280;15375;48.540;9.268;2024-01-16T12:16:52;96525.34;;;5.25;51.18
4814;BME280;15375;48.540;9.268;2024-01-16T12:19:18;96507.56;;;5.28;51.63
4814;BME280;15375;48.540;9.268;2024-01-16T12:21:44;96497.81;;;5.00;51.67
4814;BME280;15375;48.540;9.268;2024-01-16T12:24:11;96543.59;;;5.51;51.22
4814;BME280;15375;48.540;9.268;2024-01-16T12:26:37;96513.78;;;5.21;50.86
4814;BME280;15375;48.540;9.268;2024-01-16T12:29:02;96487.44;;;4.91;51.50
4814;BME280;15375;48.540;9.268;2024-01-16T12:31:28;96507.47;;;5.35;51.36
4814;BME280;15375;48.540;9.268;2024-01-16T12:34:14;96507.63;;;5.58;49.66
4814;BME280;15375;48.540;9.268;2024-01-16T12:36:39;96490.53;;;5.31;49.99
4814;BME280;15375;48.540;9.268;2024-01-16T12:39:05;96482.91;;;4.85;49.98
4814;BME280;15375;48.540;9.268;2024-01-16T12:41:35;96442.72;;;3.95;51.38
4814;BME280;15375;48.540;9.268;2024-01-16T12:44:03;96501.81;;;4.37;52.94
4814;BME280;15375;48.540;9.268;2024-01-16T12:46:29;96420.03;;;3.88;52.21
4814;BME280;15375;48.540;9.268;2024-01-16T12:49:03;96481.50;;;4.66;52.27
4814;BME280;15375;48.540;9.268;2024-01-16T12:51:29;96474.34;;;4.93;51.77
4814;BME280;15375;48.540;9.268;2024-01-16T12:53:54;96486.81;;;5.18;50.82
4814;BME280;15375;48.540;9.268;2024-01-16T12:56:34;96454.38;;;4.80;50.43
4814;BME280;15375;48.540;9.268;2024-01-16T12:59:08;96447.44;;;4.79;50.19
4814;BME280;15375;48.540;9.268;2024-01-16T13:01:34;96452.19;;;4.68;51.24
4814;BME280;15375;48.540;9.268;2024-01-16T13:04:03;96437.44;;;4.35;50.73
4814;BME280;15375;48.540;9.268;2024-01-16T13:06:29;96447.91;;;4.26;51.67
4814;BME280;15375;48.540;9.268;2024-01-16T13:09:07;96478.13;;;4.04;52.53
4814;BME280;15375;48.540;9.268;2024-01-16T13:11:50;96454.81;;;3.69;53.25
4814;BME280;15375;48.540;9.268;2024-01-16T13:14:17;96455.56;;;3.76;53.15
4814;BME280;15375;48.540;9.268;2024-01-16T13:16:42;96339.66;;;3.00;52.29
4814;BME280;15375;48.540;9.268;2024-01-16T13:19:08;96443.22;;;3.75;52.94
4814;BME280;15375;48.540;9.268;2024-01-16T13:21:37;96456.69;;;3.79;53.09
4814;BME280;15375;48.540;9.268;2024-01-16T13:24:06;96424.53;;;3.40;53.04